sensor_id;sensor_type;location;lat;lon;timestamp;pressure;altitude;pressure_sealevel;temperature;humidity
2791;BME280;31795;50.970;13.366;2022-07-21T00:00:05;97819.31;;;20.11;77.33
2791;BME280;31795;50.970;13.366;2022-07-21T00:02:18;97815.88;;;20.11;78.97
2791;BME280;31795;50.970;13.366;2022-07-21T00:04:31;97810.81;;;20.09;78.42
2791;BME280;31795;50.970;13.366;2022-07-21T00:06:41;97808.41;;;20.08;78.26
2791;BME280;31795;50.970;13.366;2022-07-21T00:08:47;97803.13;;;20.08;79.08
2791;BME280;31795;50.970;13.366;2022-07-21T00:11:00;97800.69;;;20.06;80.16
2791;BME280;31795;50.970;13.366;2022-07-21T00:13:11;97793.06;;;20.10;79.69
2791;BME280;31795;50.970;13.366;2022-07-21T00:16:02;97791.47;;;20.09;80.23
2791;BME280;31795;50.970;13.366;2022-07-21T00:18:08;97792.56;;;20.13;80.83
2791;BME280;31795;50.970;13.366;2022-07-21T00:20:16;97791.28;;;20.15;80.23
2791;BME280;31795;50.970;13.366;2022-07-21T00:22:23;97784.63;;;20.13;80.46
2791;BME280;31795;50.970;13.366;2022-07-21T00:24:33;97783.91;;;20.17;80.28
2791;BME280;31795;50.970;13.366;2022-07-21T00:26:53;97788.38;;;20.17;80.30
2791;BME280;31795;50.970;13.366;2022-07-21T00:29:01;97791.84;;;20.17;80.47
2791;BME280;31795;50.970;13.366;2022-07-21T00:31:07;97787.25;;;20.13;80.76
2791;BME280;31795;50.970;13.366;2022-07-21T00:33:14;97796.03;;;20.13;81.02
2791;BME280;31795;50.970;13.366;2022-07-21T00:35:25;97839.72;;;20.11;82.95
2791;BME280;31795;50.970;13.366;2022-07-21T00:37:46;97883.66;;;20.06;81.91
2791;BME280;31795;50.970;13.366;2022-07-21T00:40:18;97873.09;;;20.12;79.46
2791;BME280;31795;50.970;13.366;2022-07-21T00:42:54;97855.06;;;20.09;79.56
2791;BME280;31795;50.970;13.366;2022-07-21T00:45:05;97840.03;;;20.14;77.78
2791;BME280;31795;50.970;13.366;2022-07-21T00:47:11;97841.22;;;20.24;76.59
2791;BME280;31795;50.970;13.366;2022-07-21T00:49:19;97853.81;;;20.33;76.90
2791;BME280;31795;50.970;13.366;2022-07-21T00:51:25;97861.91;;;20.44;74.62
2791;BME280;31795;50.970;13.366;2022-07-21T00:53:45;97859.00;;;20.45;76.00
2791;BME280;31795;50.970;13.366;2022-07-21T00:56:06;97856.13;;;20.47;74.55
2791;BME280;31795;50.970;13.366;2022-07-21T00:58:29;97854.31;;;20.52;74.65
2791;BME280;31795;50.970;13.366;2022-07-21T01:00:40;97845.16;;;20.60;72.40
2791;BME280;31795;50.970;13.366;2022-07-21T01:02:51;97842.31;;;20.67;71.32
2791;BME280;31795;50.970;13.366;2022-07-21T01:05:12;97840.25;;;20.74;69.87
2791;BME280;31795;50.970;13.366;2022-07-21T01:07:35;97842.19;;;20.79;69.92
2791;BME280;31795;50.970;13.366;2022-07-21T01:09:42;97842.16;;;20.96;68.76
2791;BME280;31795;50.970;13.366;2022-07-21T01:11:51;97844.09;;;21.06;67.01
2791;BME280;31795;50.970;13.366;2022-07-21T01:14:30;97851.34;;;21.16;65.03
2791;BME280;31795;50.970;13.366;2022-07-21T01:16:39;97855.88;;;21.15;66.59
2791;BME280;31795;50.970;13.366;2022-07-21T01:18:48;97856.09;;;21.13;66.89
2791;BME280;31795;50.970;13.366;2022-07-21T01:21:11;97862.16;;;21.09;67.80
2791;BME280;31795;50.970;13.366;2022-07-21T01:23:19;97866.13;;;21.06;67.26
2791;BME280;31795;50.970;13.366;2022-07-21T01:25:28;97879.59;;;21.00;69.15
2791;BME280;31795;50.970;13.366;2022-07-21T01:27:35;97896.03;;;21.24;65.73
2791;BME280;31795;50.970;13.366;2022-07-21T01:30:03;97894.69;;;21.21;67.54
2791;BME280;31795;50.970;13.366;2022-07-21T01:32:12;97893.88;;;21.21;65.77
2791;BME280;31795;50.970;13.366;2022-07-21T01:34:18;97901.09;;;21.25;67.38
2791;BME280;31795;50.970;13.366;2022-07-21T01:36:45;97904.06;;;21.29;66.41
2791;BME280;31795;50.970;13.366;2022-07-21T01:38:54;97914.22;;;21.37;66.02
2791;BME280;31795;50.970;13.366;2022-07-21T01:41:18;97912.13;;;21.39;65.28
2791;BME280;31795;50.970;13.366;2022-07-21T01:43:37;97924.97;;;21.48;65.13
2791;BME280;31795;50.970;13.366;2022-07-21T01:45:44;97922.88;;;21.50;67.08
2791;BME280;31795;50.970;13.366;2022-07-21T01:47:59;97928.91;;;21.45;67.51
2791;BME280;31795;50.970;13.366;2022-07-21T01:50:14;97922.66;;;21.56;67.58
2791;BME280;31795;50.970;13.366;2022-07-21T01:52:44;97930.63;;;21.56;69.55
2791;BME280;31795;50.970;13.366;2022-07-21T01:54:51;97926.19;;;21.62;68.65
2791;BME280;31795;50.970;13.366;2022-07-21T01:57:05;97931.50;;;21.62;72.71
2791;BME280;31795;50.970;13.366;2022-07-21T01:59:13;97928.69;;;21.74;75.16
2791;BME280;31795;50.970;13.366;2022-07-21T02:01:20;97929.50;;;22.07;74.24
2791;BME280;31795;50.970;13.366;2022-07-21T02:03:27;97931.06;;;22.03;74.96
2791;BME280;31795;50.970;13.366;2022-07-21T02:06:02;97931.34;;;22.07;79.26
2791;BME280;31795;50.970;13.366;2022-07-21T02:08:44;97936.72;;;22.12;80.10
2791;BME280;31795;50.970;13.366;2022-07-21T02:10:57;97936.16;;;22.10;80.47
2791;BME280;31795;50.970;13.366;2022-07-21T02:13:03;97935.09;;;22.11;81.86
2791;BME280;31795;50.970;13.366;2022-07-21T02:15:10;97931.09;;;22.08;81.01
2791;BME280;31795;50.970;13.366;2022-07-21T02:17:30;97934.25;;;22.05;81.21
2791;BME280;31795;50.970;13.366;2022-07-21T02:19:40;97935.81;;;22.01;82.18
2791;BME280;31795;50.970;13.366;2022-07-21T02:21:46;97941.31;;;21.89;82.30
2791;BME280;31795;50.970;13.366;2022-07-21T02:24:01;97938.91;;;21.87;82.58
2791;BME280;31795;50.970;13.366;2022-07-21T02:26:08;97943.63;;;21.80;84.04
2791;BME280;31795;50.970;13.366;2022-07-21T02:28:21;97947.34;;;21.79;84.14
2791;BME280;31795;50.970;13.366;2022-07-21T02:30:27;97951.31;;;21.77;85.22
2791;BME280;31795;50.970;13.366;2022-07-21T02:32:34;97953.44;;;21.80;84.11
2791;BME280;31795;50.970;13.366;2022-07-21T02:34:56;97950.22;;;21.78;83.92
2791;BME280;31795;50.970;13.366;2022-07-21T02:37:08;97946.78;;;21.77;84.90
2791;BME280;31795;50.970;13.366;2022-07-21T02:39:40;97955.81;;;21.76;85.46
2791;BME280;31795;50.970;13.366;2022-07-21T02:41:45;97965.66;;;21.76;84.67
2791;BME280;31795;50.970;13.366;2022-07-21T02:43:52;97963.00;;;21.76;85.78
2791;BME280;31795;50.970;13.366;2022-07-21T02:46:00;97961.38;;;21.74;84.77
2791;BME280;31795;50.970;13.366;2022-07-21T02:48:09;97964.78;;;21.70;84.65
2791;BME280;31795;50.970;13.366;2022-07-21T02:50:16;97962.38;;;21.68;86.84
2791;BME280;31795;50.970;13.366;2022-07-21T02:52:43;97966.56;;;21.64;86.77
2791;BME280;31795;50.970;13.366;2022-07-21T02:54:53;97969.16;;;21.59;86.39
2791;BME280;31795;50.970;13.366;2022-07-21T02:57:00;97969.97;;;21.59;86.19
2791;BME280;31795;50.970;13.366;2022-07-21T02:59:06;97972.88;;;21.58;85.58
2791;BME280;31795;50.970;13.366;2022-07-21T03:01:13;97970.47;;;21.56;87.09
2791;BME280;31795;50.970;13.366;2022-07-21T03:03:30;97971.25;;;21.57;86.37
2791;BME280;31795;50.970;13.366;2022-07-21T03:05:40;97966.28;;;21.61;86.64
2791;BME280;31795;50.970;13.366;2022-07-21T03:07:47;97975.28;;;21.59;86.94
2791;BME280;31795;50.970;13.366;2022-07-21T03:10:06;97982.44;;;21.59;84.92
2791;BME280;31795;50.970;13.366;2022-07-21T03:12:12;97974.69;;;21.57;86.24
2791;BME280;31795;50.970;13.366;2022-07-21T03:14:28;97978.19;;;21.58;84.65
2791;BME280;31795;50.970;13.366;2022-07-21T03:16:34;97973.63;;;21.53;84.22
2791;BME280;31795;50.970;13.366;2022-07-21T03:19:01;97986.59;;;21.50;83.47
2791;BME280;31795;50.970;13.366;2022-07-21T03:21:15;97993.44;;;21.46;84.00
2791;BME280;31795;50.970;13.366;2022-07-21T03:23:22;97993.34;;;21.35;85.92
2791;BME280;31795;50.970;13.366;2022-07-21T03:25:44;97985.56;;;21.28;85.23
2791;BME280;31795;50.970;13.366;2022-07-21T03:27:56;97988.94;;;21.24;84.78
2791;BME280;31795;50.970;13.366;2022-07-21T03:30:11;97997.09;;;21.17;85.19
2791;BME280;31795;50.970;13.366;2022-07-21T03:32:21;97998.63;;;21.13;85.08
2791;BME280;31795;50.970;13.366;2022-07-21T03:34:28;97999.13;;;21.10;85.92
2791;BME280;31795;50.970;13.366;2022-07-21T03:36:34;97999.03;;;21.05;86.10
2791;BME280;31795;50.970;13.366;2022-07-21T03:38:42;98006.16;;;20.99;86.27
2791;BME280;31795;50.970;13.366;2022-07-21T03:40:50;98002.63;;;20.93;88.34
2791;BME280;31795;50.970;13.366;2022-07-21T03:43:14;97999.03;;;20.82;88.34
2791;BME280;31795;50.970;13.366;2022-07-21T03:45:25;98001.34;;;20.79;88.67
2791;BME280;31795;50.970;13.366;2022-07-21T03:47:35;97997.34;;;20.76;88.44
2791;BME280;31795;50.970;13.366;2022-07-21T03:49:45;98009.22;;;20.74;88.14
2791;BME280;31795;50.970;13.366;2022-07-21T03:51:57;98004.81;;;20.62;89.82
2791;BME280;31795;50.970;13.366;2022-07-21T03:54:10;98005.31;;;20.59;90.07
2791;BME280;31795;50.970;13.366;2022-07-21T03:56:18;97999.69;;;20.56;90.45
2791;BME280;31795;50.970;13.366;2022-07-21T03:58:24;98010.78;;;20.52;91.54
2791;BME280;31795;50.970;13.366;2022-07-21T04:00:33;98007.06;;;20.54;91.42
2791;BME280;31795;50.970;13.366;2022-07-21T04:02:44;98011.56;;;20.53;91.02
2791;BME280;31795;50.970;13.366;2022-07-21T04:04:50;98015.25;;;20.52;90.97
2791;BME280;31795;50.970;13.366;2022-07-21T04:07:12;98012.38;;;20.54;91.49
2791;BME280;31795;50.970;13.366;2022-07-21T04:09:18;98019.50;;;20.53;91.50
2791;BME280;31795;50.970;13.366;2022-07-21T04:11:33;98025.69;;;20.59;92.40
2791;BME280;31795;50.970;13.366;2022-07-21T04:13:49;98032.13;;;20.63;94.61
2791;BME280;31795;50.970;13.366;2022-07-21T04:16:01;98025.47;;;20.60;94.84
2791;BME280;31795;50.970;13.366;2022-07-21T04:18:22;98036.66;;;20.79;93.34
2791;BME280;31795;50.970;13.366;2022-07-21T04:20:31;98037.63;;;21.30;94.10
2791;BME280;31795;50.970;13.366;2022-07-21T04:22:38;98030.75;;;22.05;92.11
2791;BME280;31795;50.970;13.366;2022-07-21T04:24:45;98022.31;;;23.22;87.88
2791;BME280;31795;50.970;13.366;2022-07-21T04:27:17;98011.66;;;24.27;80.87
2791;BME280;31795;50.970;13.366;2022-07-21T04:29:23;98012.84;;;25.17;76.16
2791;BME280;31795;50.970;13.366;2022-07-21T04:31:30;98005.88;;;25.82;72.51
2791;BME280;31795;50.970;13.366;2022-07-21T04:33:39;97996.22;;;26.26;70.07
2791;BME280;31795;50.970;13.366;2022-07-21T04:35:52;97992.56;;;26.75;66.27
2791;BME280;31795;50.970;13.366;2022-07-21T04:37:59;97997.78;;;27.15;63.30
2791;BME280;31795;50.970;13.366;2022-07-21T04:40:13;97999.00;;;27.47;63.48
2791;BME280;31795;50.970;13.366;2022-07-21T04:42:24;98002.63;;;27.95;61.22
2791;BME280;31795;50.970;13.366;2022-07-21T04:44:46;97997.75;;;28.35;58.76
2791;BME280;31795;50.970;13.366;2022-07-21T04:46:52;97998.47;;;28.55;57.90
2791;BME280;31795;50.970;13.366;2022-07-21T04:48:59;97996.69;;;28.64;58.20
2791;BME280;31795;50.970;13.366;2022-07-21T04:51:13;97997.53;;;28.93;57.41
2791;BME280;31795;50.970;13.366;2022-07-21T04:53:19;97995.16;;;29.05;56.44
2791;BME280;31795;50.970;13.366;2022-07-21T04:55:34;97999.53;;;29.15;55.33
2791;BME280;31795;50.970;13.366;2022-07-21T04:57:52;98013.94;;;29.47;53.82
2791;BME280;31795;50.970;13.366;2022-07-21T05:00:06;98009.94;;;29.58;54.24
2791;BME280;31795;50.970;13.366;2022-07-21T05:02:13;98014.63;;;29.89;54.28
2791;BME280;31795;50.970;13.366;2022-07-21T05:04:24;98007.56;;;29.79;53.75
2791;BME280;31795;50.970;13.366;2022-07-21T05:06:38;98008.38;;;30.17;50.88
2791;BME280;31795;50.970;13.366;2022-07-21T05:08:45;98021.03;;;30.16;50.90
2791;BME280;31795;50.970;13.366;2022-07-21T05:10:57;98020.41;;;29.60;51.82
2791;BME280;31795;50.970;13.366;2022-07-21T05:13:25;98023.44;;;29.67;52.69
2791;BME280;31795;50.970;13.366;2022-07-21T05:15:38;98019.25;;;29.75;51.78
2791;BME280;31795;50.970;13.366;2022-07-21T05:17:50;98023.84;;;29.74;52.19
2791;BME280;31795;50.970;13.366;2022-07-21T05:20:02;98020.13;;;29.84;52.37
2791;BME280;31795;50.970;13.366;2022-07-21T05:22:15;98032.25;;;29.45;52.07
2791;BME280;31795;50.970;13.366;2022-07-21T05:24:45;98027.78;;;29.26;52.92
2791;BME280;31795;50.970;13.366;2022-07-21T05:26:51;98020.50;;;29.27;52.49
2791;BME280;31795;50.970;13.366;2022-07-21T05:29:04;98025.22;;;29.07;53.05
2791;BME280;31795;50.970;13.366;2022-07-21T05:31:16;98014.97;;;29.09;52.53
2791;BME280;31795;50.970;13.366;2022-07-21T05:33:28;98018.53;;;28.90;53.15
2791;BME280;31795;50.970;13.366;2022-07-21T05:35:35;98015.75;;;28.96;53.05
2791;BME280;31795;50.970;13.366;2022-07-21T05:37:41;98025.50;;;28.58;54.06
2791;BME280;31795;50.970;13.366;2022-07-21T05:39:48;98033.28;;;28.08;52.11
2791;BME280;31795;50.970;13.366;2022-07-21T05:41:56;98022.97;;;27.38;53.42
2791;BME280;31795;50.970;13.366;2022-07-21T05:45:32;98031.22;;;27.18;53.78
2791;BME280;31795;50.970;13.366;2022-07-21T05:46:41;98030.97;;;26.66;55.42
2791;BME280;31795;50.970;13.366;2022-07-21T05:49:00;98033.47;;;26.17;56.38
2791;BME280;31795;50.970;13.366;2022-07-21T05:51:06;98031.34;;;26.14;57.48
2791;BME280;31795;50.970;13.366;2022-07-21T05:53:13;98029.91;;;25.87;56.69
2791;BME280;31795;50.970;13.366;2022-07-21T05:55:21;98029.81;;;26.02;58.71
2791;BME280;31795;50.970;13.366;2022-07-21T05:57:36;98025.06;;;26.34;58.58
2791;BME280;31795;50.970;13.366;2022-07-21T05:59:47;98024.78;;;26.65;58.63
2791;BME280;31795;50.970;13.366;2022-07-21T06:01:57;98027.88;;;26.83;56.84
2791;BME280;31795;50.970;13.366;2022-07-21T06:04:20;98022.47;;;27.12;57.11
2791;BME280;31795;50.970;13.366;2022-07-21T06:06:27;98029.81;;;27.50;57.53
2791;BME280;31795;50.970;13.366;2022-07-21T06:08:40;98015.59;;;27.88;57.90
2791;BME280;31795;50.970;13.366;2022-07-21T06:10:52;98020.94;;;28.07;55.46
2791;BME280;31795;50.970;13.366;2022-07-21T06:12:58;98023.63;;;28.07;55.37
2791;BME280;31795;50.970;13.366;2022-07-21T06:15:07;98023.63;;;28.26;55.43
2791;BME280;31795;50.970;13.366;2022-07-21T06:17:14;98034.53;;;28.16;56.36
2791;BME280;31795;50.970;13.366;2022-07-21T06:19:28;98040.09;;;27.81;54.37
2791;BME280;31795;50.970;13.366;2022-07-21T06:21:35;98032.22;;;27.71;53.56
2791;BME280;31795;50.970;13.366;2022-07-21T06:23:48;98034.75;;;27.62;54.83
2791;BME280;31795;50.970;13.366;2022-07-21T06:26:33;98032.66;;;27.34;53.38
2791;BME280;31795;50.970;13.366;2022-07-21T06:28:39;98035.03;;;27.36;55.46
2791;BME280;31795;50.970;13.366;2022-07-21T06:31:01;98030.03;;;27.29;53.93
2791;BME280;31795;50.970;13.366;2022-07-21T06:33:08;98047.78;;;27.25;56.06
2791;BME280;31795;50.970;13.366;2022-07-21T06:35:16;98047.25;;;27.23;55.97
2791;BME280;31795;50.970;13.366;2022-07-21T06:37:31;98042.25;;;27.16;56.03
2791;BME280;31795;50.970;13.366;2022-07-21T06:39:48;98045.94;;;27.20;56.60
2791;BME280;31795;50.970;13.366;2022-07-21T06:41:55;98046.00;;;27.15;59.45
2791;BME280;31795;50.970;13.366;2022-07-21T06:44:05;98055.97;;;27.10;59.37
2791;BME280;31795;50.970;13.366;2022-07-21T06:46:18;98065.00;;;27.19;59.36
2791;BME280;31795;50.970;13.366;2022-07-21T06:48:25;98051.47;;;27.29;57.60
2791;BME280;31795;50.970;13.366;2022-07-21T06:50:35;98055.97;;;27.34;58.92
2791;BME280;31795;50.970;13.366;2022-07-21T06:52:49;98058.72;;;27.29;57.29
2791;BME280;31795;50.970;13.366;2022-07-21T06:55:15;98070.28;;;27.48;55.95
2791;BME280;31795;50.970;13.366;2022-07-21T07:00:30;98062.88;;;27.64;56.51
2791;BME280;31795;50.970;13.366;2022-07-21T07:02:37;98068.38;;;27.73;56.48
2791;BME280;31795;50.970;13.366;2022-07-21T07:04:44;98076.63;;;27.58;56.29
2791;BME280;31795;50.970;13.366;2022-07-21T07:06:50;98072.63;;;27.55;57.17
2791;BME280;31795;50.970;13.366;2022-07-21T07:08:59;98081.75;;;27.54;58.62
2791;BME280;31795;50.970;13.366;2022-07-21T07:11:15;98090.97;;;27.48;58.35
2791;BME280;31795;50.970;13.366;2022-07-21T07:13:34;98095.28;;;27.68;56.85
2791;BME280;31795;50.970;13.366;2022-07-21T07:15:41;98098.50;;;27.89;56.52
2791;BME280;31795;50.970;13.366;2022-07-21T07:18:13;98093.41;;;28.07;56.88
2791;BME280;31795;50.970;13.366;2022-07-21T07:20:19;98093.47;;;27.82;55.47
2791;BME280;31795;50.970;13.366;2022-07-21T07:22:57;98080.13;;;27.77;56.10
2791;BME280;31795;50.970;13.366;2022-07-21T07:27:43;98092.59;;;28.11;55.81
2791;BME280;31795;50.970;13.366;2022-07-21T07:29:51;98092.44;;;28.22;54.62
2791;BME280;31795;50.970;13.366;2022-07-21T07:31:58;98081.53;;;28.32;54.86
2791;BME280;31795;50.970;13.366;2022-07-21T07:34:06;98084.06;;;28.23;53.20
2791;BME280;31795;50.970;13.366;2022-07-21T07:36:12;98078.88;;;28.13;53.86
2791;BME280;31795;50.970;13.366;2022-07-21T07:38:20;98082.19;;;28.43;55.03
2791;BME280;31795;50.970;13.366;2022-07-21T07:40:27;98085.78;;;28.52;53.24
2791;BME280;31795;50.970;13.366;2022-07-21T07:42:34;98075.41;;;28.79;54.60
2791;BME280;31795;50.970;13.366;2022-07-21T07:44:43;98084.41;;;28.88;53.52
2791;BME280;31795;50.970;13.366;2022-07-21T07:46:54;98088.41;;;29.04;53.13
2791;BME280;31795;50.970;13.366;2022-07-21T07:49:23;98087.59;;;29.18;50.95
2791;BME280;31795;50.970;13.366;2022-07-21T07:51:29;98086.44;;;29.10;51.79
2791;BME280;31795;50.970;13.366;2022-07-21T07:53:36;98090.50;;;29.21;53.05
2791;BME280;31795;50.970;13.366;2022-07-21T07:55:53;98085.88;;;28.94;52.82
2791;BME280;31795;50.970;13.366;2022-07-21T07:58:00;98084.91;;;28.90;54.56
2791;BME280;31795;50.970;13.366;2022-07-21T08:00:09;98089.66;;;28.93;55.65
2791;BME280;31795;50.970;13.366;2022-07-21T08:02:16;98089.00;;;29.01;55.75
2791;BME280;31795;50.970;13.366;2022-07-21T08:04:31;98094.22;;;28.79;55.13
2791;BME280;31795;50.970;13.366;2022-07-21T08:06:38;98096.34;;;28.96;56.87
2791;BME280;31795;50.970;13.366;2022-07-21T08:08:55;98099.03;;;28.96;55.27
2791;BME280;31795;50.970;13.366;2022-07-21T08:11:02;98089.47;;;28.89;55.11
2791;BME280;31795;50.970;13.366;2022-07-21T08:13:16;98097.97;;;29.11;55.46
2791;BME280;31795;50.970;13.366;2022-07-21T08:15:23;98092.50;;;29.16;54.50
2791;BME280;31795;50.970;13.366;2022-07-21T08:17:38;98093.88;;;29.13;55.39
2791;BME280;31795;50.970;13.366;2022-07-21T08:19:54;98086.19;;;29.06;56.50
2791;BME280;31795;50.970;13.366;2022-07-21T08:22:06;98085.44;;;28.73;56.23
2791;BME280;31795;50.970;13.366;2022-07-21T08:24:22;98090.09;;;28.67;56.05
2791;BME280;31795;50.970;13.366;2022-07-21T08:26:35;98084.88;;;28.57;56.67
2791;BME280;31795;50.970;13.366;2022-07-21T08:28:43;98091.44;;;28.51;57.77
2791;BME280;31795;50.970;13.366;2022-07-21T08:31:10;98093.38;;;28.64;57.72
2791;BME280;31795;50.970;13.366;2022-07-21T08:33:17;98097.56;;;28.70;57.35
2791;BME280;31795;50.970;13.366;2022-07-21T08:35:25;98104.97;;;28.59;57.67
2791;BME280;31795;50.970;13.366;2022-07-21T08:37:31;98097.47;;;28.42;57.00
2791;BME280;31795;50.970;13.366;2022-07-21T08:39:38;98102.38;;;28.73;57.70
2791;BME280;31795;50.970;13.366;2022-07-21T08:41:44;98102.94;;;29.17;58.46
2791;BME280;31795;50.970;13.366;2022-07-21T08:44:20;98107.16;;;29.65;59.29
2791;BME280;31795;50.970;13.366;2022-07-21T08:46:28;98107.84;;;29.71;55.86
2791;BME280;31795;50.970;13.366;2022-07-21T08:48:38;98116.00;;;29.66;56.78
2791;BME280;31795;50.970;13.366;2022-07-21T08:51:02;98121.31;;;29.57;55.97
2791;BME280;31795;50.970;13.366;2022-07-21T08:53:09;98120.00;;;29.41;56.36
2791;BME280;31795;50.970;13.366;2022-07-21T08:55:24;98113.53;;;29.70;56.94
2791;BME280;31795;50.970;13.366;2022-07-21T08:57:49;98109.94;;;29.74;54.92
2791;BME280;31795;50.970;13.366;2022-07-21T08:59:55;98115.41;;;29.83;55.46
2791;BME280;31795;50.970;13.366;2022-07-21T09:02:26;98121.09;;;29.95;55.53
2791;BME280;31795;50.970;13.366;2022-07-21T09:04:40;98117.63;;;30.18;56.06
2791;BME280;31795;50.970;13.366;2022-07-21T09:07:12;98118.00;;;30.25;54.19
2791;BME280;31795;50.970;13.366;2022-07-21T09:09:19;98123.97;;;30.36;53.61
2791;BME280;31795;50.970;13.366;2022-07-21T09:11:27;98125.09;;;30.21;53.42
2791;BME280;31795;50.970;13.366;2022-07-21T09:13:42;98120.81;;;30.20;51.72
2791;BME280;31795;50.970;13.366;2022-07-21T09:15:49;98122.81;;;30.14;53.84
2791;BME280;31795;50.970;13.366;2022-07-21T09:18:08;98119.44;;;30.08;54.32
2791;BME280;31795;50.970;13.366;2022-07-21T09:20:27;98122.38;;;29.98;53.85
2791;BME280;31795;50.970;13.366;2022-07-21T09:23:08;98113.72;;;29.73;54.26
2791;BME280;31795;50.970;13.366;2022-07-21T09:25:32;98113.03;;;30.18;55.91
2791;BME280;31795;50.970;13.366;2022-07-21T09:27:39;98120.94;;;30.37;56.63
2791;BME280;31795;50.970;13.366;2022-07-21T09:29:53;98120.84;;;30.06;53.67
2791;BME280;31795;50.970;13.366;2022-07-21T09:32:16;98116.72;;;30.22;56.27
2791;BME280;31795;50.970;13.366;2022-07-21T09:34:23;98107.34;;;30.20;52.64
2791;BME280;31795;50.970;13.366;2022-07-21T09:36:32;98115.28;;;30.02;52.89
2791;BME280;31795;50.970;13.366;2022-07-21T09:39:18;98118.19;;;29.78;52.43
2791;BME280;31795;50.970;13.366;2022-07-21T09:41:26;98112.34;;;29.62;53.50
2791;BME280;31795;50.970;13.366;2022-07-21T09:43:39;98119.09;;;29.59;53.48
2791;BME280;31795;50.970;13.366;2022-07-21T09:46:03;98121.00;;;29.59;53.74
2791;BME280;31795;50.970;13.366;2022-07-21T09:48:31;98125.09;;;29.56;52.82
2791;BME280;31795;50.970;13.366;2022-07-21T09:50:45;98115.53;;;29.50;52.67
2791;BME280;31795;50.970;13.366;2022-07-21T09:52:58;98125.78;;;29.34;52.80
2791;BME280;31795;50.970;13.366;2022-07-21T09:55:11;98123.69;;;29.45;52.92
2791;BME280;31795;50.970;13.366;2022-07-21T09:57:19;98119.22;;;29.54;51.63
2791;BME280;31795;50.970;13.366;2022-07-21T09:59:26;98121.09;;;29.54;51.71
2791;BME280;31795;50.970;13.366;2022-07-21T10:01:33;98125.56;;;29.58;52.81
2791;BME280;31795;50.970;13.366;2022-07-21T10:06:24;98114.78;;;30.00;53.29
2791;BME280;31795;50.970;13.366;2022-07-21T10:08:34;98117.88;;;29.79;52.46
2791;BME280;31795;50.970;13.366;2022-07-21T10:11:00;98132.13;;;29.66;51.53
2791;BME280;31795;50.970;13.366;2022-07-21T10:13:13;98126.69;;;29.57;53.79
2791;BME280;31795;50.970;13.366;2022-07-21T10:15:20;98126.75;;;29.10;54.33
2791;BME280;31795;50.970;13.366;2022-07-21T10:17:27;98127.41;;;28.69;55.98
2791;BME280;31795;50.970;13.366;2022-07-21T10:19:37;98120.53;;;28.43;55.96
2791;BME280;31795;50.970;13.366;2022-07-21T10:21:51;98110.34;;;28.26;57.27
2791;BME280;31795;50.970;13.366;2022-07-21T10:24:11;98110.19;;;28.37;58.74
2791;BME280;31795;50.970;13.366;2022-07-21T10:26:33;98112.41;;;27.91;58.58
2791;BME280;31795;50.970;13.366;2022-07-21T10:28:48;98119.69;;;27.86;59.27
2791;BME280;31795;50.970;13.366;2022-07-21T10:30:58;98128.84;;;27.65;60.20
2791;BME280;31795;50.970;13.366;2022-07-21T10:33:16;98146.78;;;27.65;60.44
2791;BME280;31795;50.970;13.366;2022-07-21T10:35:28;98145.56;;;27.28;61.99
2791;BME280;31795;50.970;13.366;2022-07-21T10:37:46;98140.13;;;27.33;63.07
2791;BME280;31795;50.970;13.366;2022-07-21T10:39:59;98128.50;;;27.18;63.49
2791;BME280;31795;50.970;13.366;2022-07-21T10:42:23;98128.13;;;27.01;63.79
2791;BME280;31795;50.970;13.366;2022-07-21T10:44:50;98132.88;;;26.80;64.38
2791;BME280;31795;50.970;13.366;2022-07-21T10:47:07;98132.38;;;26.72;64.88
2791;BME280;31795;50.970;13.366;2022-07-21T10:49:50;98146.75;;;26.42;68.80
2791;BME280;31795;50.970;13.366;2022-07-21T10:51:57;98184.59;;;26.30;69.17
2791;BME280;31795;50.970;13.366;2022-07-21T10:54:27;98171.19;;;25.64;72.19
2791;BME280;31795;50.970;13.366;2022-07-21T10:56:35;98161.88;;;25.46;75.98
2791;BME280;31795;50.970;13.366;2022-07-21T10:58:47;98166.66;;;25.65;73.77
2791;BME280;31795;50.970;13.366;2022-07-21T11:00:55;98172.00;;;25.60;74.59
2791;BME280;31795;50.970;13.366;2022-07-21T11:03:15;98166.66;;;25.54;75.09
2791;BME280;31795;50.970;13.366;2022-07-21T11:05:30;98168.03;;;25.16;78.10
2791;BME280;31795;50.970;13.366;2022-07-21T11:10:30;98194.47;;;24.71;83.17
2791;BME280;31795;50.970;13.366;2022-07-21T11:13:00;98196.81;;;24.57;86.05
2791;BME280;31795;50.970;13.366;2022-07-21T11:18:11;98187.00;;;23.94;93.56
2791;BME280;31795;50.970;13.366;2022-07-21T11:20:24;98184.94;;;24.01;93.70
2791;BME280;31795;50.970;13.366;2022-07-21T11:22:33;98181.00;;;24.19;92.00
2791;BME280;31795;50.970;13.366;2022-07-21T11:24:57;98193.81;;;24.27;92.76
2791;BME280;31795;50.970;13.366;2022-07-21T11:27:07;98190.63;;;24.20;94.48
2791;BME280;31795;50.970;13.366;2022-07-21T11:29:18;98185.50;;;24.08;94.71
2791;BME280;31795;50.970;13.366;2022-07-21T11:31:52;98197.50;;;24.06;94.04
2791;BME280;31795;50.970;13.366;2022-07-21T11:34:08;98199.38;;;24.10;94.30
2791;BME280;31795;50.970;13.366;2022-07-21T11:36:40;98190.97;;;23.86;97.59
2791;BME280;31795;50.970;13.366;2022-07-21T11:39:05;98192.19;;;23.63;98.97
2791;BME280;31795;50.970;13.366;2022-07-21T11:41:24;98193.78;;;23.64;99.45
2791;BME280;31795;50.970;13.366;2022-07-21T11:43:41;98189.00;;;23.66;100.00
2791;BME280;31795;50.970;13.366;2022-07-21T11:46:14;98171.09;;;23.51;99.88
2791;BME280;31795;50.970;13.366;2022-07-21T11:48:32;98172.22;;;23.65;100.00
2791;BME280;31795;50.970;13.366;2022-07-21T11:50:58;98165.00;;;23.61;100.00
2791;BME280;31795;50.970;13.366;2022-07-21T11:53:08;98162.69;;;23.80;100.00
2791;BME280;31795;50.970;13.366;2022-07-21T11:55:19;98162.97;;;23.88;100.00
2791;BME280;31795;50.970;13.366;2022-07-21T11:57:29;98162.75;;;23.90;100.00
2791;BME280;31795;50.970;13.366;2022-07-21T11:59:42;98176.13;;;24.00;100.00
2791;BME280;31795;50.970;13.366;2022-07-21T12:01:55;98174.53;;;23.99;100.00